EGPB/LSI METAR and TAF weather

Enter ICAO airport designator
Station Type Date Time Source
EGPB METAR 2019/12/10 03:20 UTC NOAA

EGPB 100320Z AUTO 17030KT 9999 SCT018/// BKN031/// BKN047/// 07/03 Q1002


Station Type Date Time Source
EGPB Decoded METAR 2019/12/10 03:20 UTC NOAA

Sumburgh Cape , United Kingdom (EGPB) 59-53N 001-18W
Dec 09, 2019 - 10:20 PM EST / 2019.12.10 0320 UTC
Wind: from the S (170 degrees) at 35 MPH (30 KT):0
Visibility: greater than 7 mile(s):0
Sky conditions: mostly cloudy
Temperature: 44 F (7 C)
Dew Point: 37 F (3 C)
Relative Humidity: 75%
Pressure (altimeter): 29.59 in. Hg (1002 hPa)
ob: EGPB 100320Z AUTO 17030KT 9999 SCT018/// BKN031/// BKN047/// 07/03 Q1002
cycle: 3

Station Type Date Time Source
EGPB TAF UTC NOAA

Error!

Example: see airport list